sensor_id;sensor_type;location;lat;lon;timestamp;P1;durP1;ratioP1;P2;durP2;ratioP2
55545;SDS011;44768;50.298;127.520;2022-11-21T00:04:44;6.40;;;2.75;;
55545;SDS011;44768;50.298;127.520;2022-11-21T00:09:46;7.55;;;2.85;;
55545;SDS011;44768;50.298;127.520;2022-11-21T00:14:47;8.90;;;3.55;;
55545;SDS011;44768;50.298;127.520;2022-11-21T00:24:49;10.13;;;3.88;;
55545;SDS011;44768;50.298;127.520;2022-11-21T00:29:51;9.75;;;4.55;;
55545;SDS011;44768;50.298;127.520;2022-11-21T00:34:52;8.45;;;3.58;;
55545;SDS011;44768;50.298;127.520;2022-11-21T00:39:54;4.47;;;3.10;;
55545;SDS011;44768;50.298;127.520;2022-11-21T00:44:55;3.33;;;2.42;;
55545;SDS011;44768;50.298;127.520;2022-11-21T00:49:56;3.42;;;2.50;;
55545;SDS011;44768;50.298;127.520;2022-11-21T00:54:57;6.00;;;3.45;;
55545;SDS011;44768;50.298;127.520;2022-11-21T00:59:59;4.38;;;2.75;;
55545;SDS011;44768;50.298;127.520;2022-11-21T01:05:00;2.97;;;2.33;;
55545;SDS011;44768;50.298;127.520;2022-11-21T01:10:01;3.77;;;2.70;;
55545;SDS011;44768;50.298;127.520;2022-11-21T01:15:04;3.28;;;2.50;;
55545;SDS011;44768;50.298;127.520;2022-11-21T01:20:06;5.22;;;2.30;;
55545;SDS011;44768;50.298;127.520;2022-11-21T01:25:07;4.50;;;3.05;;
55545;SDS011;44768;50.298;127.520;2022-11-21T01:30:09;3.97;;;1.90;;
55545;SDS011;44768;50.298;127.520;2022-11-21T01:35:11;5.32;;;2.15;;
55545;SDS011;44768;50.298;127.520;2022-11-21T01:40:12;4.07;;;2.60;;
55545;SDS011;44768;50.298;127.520;2022-11-21T01:50:33;5.72;;;2.90;;
55545;SDS011;44768;50.298;127.520;2022-11-21T01:55:35;5.72;;;2.53;;
55545;SDS011;44768;50.298;127.520;2022-11-21T02:00:36;7.68;;;3.25;;
55545;SDS011;44768;50.298;127.520;2022-11-21T02:05:40;5.25;;;3.25;;
55545;SDS011;44768;50.298;127.520;2022-11-21T02:10:43;4.78;;;3.55;;
55545;SDS011;44768;50.298;127.520;2022-11-21T02:15:47;9.05;;;4.60;;
55545;SDS011;44768;50.298;127.520;2022-11-21T02:20:49;6.80;;;3.78;;
55545;SDS011;44768;50.298;127.520;2022-11-21T02:25:53;9.45;;;3.75;;
55545;SDS011;44768;50.298;127.520;2022-11-21T02:30:55;5.95;;;2.47;;
55545;SDS011;44768;50.298;127.520;2022-11-21T02:36:00;3.67;;;2.10;;
55545;SDS011;44768;50.298;127.520;2022-11-21T02:41:16;5.38;;;2.40;;
55545;SDS011;44768;50.298;127.520;2022-11-21T02:46:26;4.18;;;2.13;;
55545;SDS011;44768;50.298;127.520;2022-11-21T02:51:27;4.50;;;2.33;;
55545;SDS011;44768;50.298;127.520;2022-11-21T02:56:29;4.20;;;2.13;;
55545;SDS011;44768;50.298;127.520;2022-11-21T03:01:31;5.05;;;2.30;;
55545;SDS011;44768;50.298;127.520;2022-11-21T03:06:32;6.17;;;2.80;;
55545;SDS011;44768;50.298;127.520;2022-11-21T03:11:33;6.68;;;2.90;;
55545;SDS011;44768;50.298;127.520;2022-11-21T03:16:35;8.35;;;3.15;;
55545;SDS011;44768;50.298;127.520;2022-11-21T03:21:37;4.78;;;2.85;;
55545;SDS011;44768;50.298;127.520;2022-11-21T03:26:38;2.97;;;2.10;;
55545;SDS011;44768;50.298;127.520;2022-11-21T03:31:42;2.47;;;2.03;;
55545;SDS011;44768;50.298;127.520;2022-11-21T03:36:47;2.97;;;2.10;;
55545;SDS011;44768;50.298;127.520;2022-11-21T03:41:48;2.67;;;1.83;;
55545;SDS011;44768;50.298;127.520;2022-11-21T03:46:50;3.40;;;2.10;;
55545;SDS011;44768;50.298;127.520;2022-11-21T03:51:51;7.45;;;2.17;;
55545;SDS011;44768;50.298;127.520;2022-11-21T03:56:58;7.32;;;2.08;;
55545;SDS011;44768;50.298;127.520;2022-11-21T04:01:59;4.35;;;2.42;;
55545;SDS011;44768;50.298;127.520;2022-11-21T04:07:00;3.45;;;2.33;;
55545;SDS011;44768;50.298;127.520;2022-11-21T04:12:05;5.05;;;2.00;;
55545;SDS011;44768;50.298;127.520;2022-11-21T04:17:07;4.00;;;2.35;;
55545;SDS011;44768;50.298;127.520;2022-11-21T04:22:08;3.28;;;1.83;;
55545;SDS011;44768;50.298;127.520;2022-11-21T04:27:09;2.50;;;2.10;;
55545;SDS011;44768;50.298;127.520;2022-11-21T04:32:10;5.07;;;2.27;;
55545;SDS011;44768;50.298;127.520;2022-11-21T04:37:18;3.35;;;2.35;;
55545;SDS011;44768;50.298;127.520;2022-11-21T04:42:28;7.75;;;2.25;;
55545;SDS011;44768;50.298;127.520;2022-11-21T04:47:35;4.50;;;2.83;;
55545;SDS011;44768;50.298;127.520;2022-11-21T04:52:47;5.63;;;2.60;;
55545;SDS011;44768;50.298;127.520;2022-11-21T04:57:55;4.30;;;2.50;;
55545;SDS011;44768;50.298;127.520;2022-11-21T05:03:00;2.78;;;2.30;;
55545;SDS011;44768;50.298;127.520;2022-11-21T05:08:01;3.78;;;2.03;;
55545;SDS011;44768;50.298;127.520;2022-11-21T05:13:03;3.50;;;2.30;;
55545;SDS011;44768;50.298;127.520;2022-11-21T05:18:25;3.50;;;2.25;;
55545;SDS011;44768;50.298;127.520;2022-11-21T05:23:46;4.88;;;2.10;;
55545;SDS011;44768;50.298;127.520;2022-11-21T05:28:47;3.23;;;2.23;;
55545;SDS011;44768;50.298;127.520;2022-11-21T05:33:48;2.70;;;1.92;;
55545;SDS011;44768;50.298;127.520;2022-11-21T05:38:50;3.47;;;2.42;;
55545;SDS011;44768;50.298;127.520;2022-11-21T05:43:51;2.83;;;2.00;;
55545;SDS011;44768;50.298;127.520;2022-11-21T05:48:53;6.03;;;2.30;;
55545;SDS011;44768;50.298;127.520;2022-11-21T05:53:54;3.20;;;2.13;;
55545;SDS011;44768;50.298;127.520;2022-11-21T05:58:56;2.13;;;1.93;;
55545;SDS011;44768;50.298;127.520;2022-11-21T06:08:58;2.60;;;2.17;;
55545;SDS011;44768;50.298;127.520;2022-11-21T06:13:59;2.42;;;1.90;;
55545;SDS011;44768;50.298;127.520;2022-11-21T06:19:01;3.33;;;2.70;;
55545;SDS011;44768;50.298;127.520;2022-11-21T06:24:02;3.35;;;2.13;;
55545;SDS011;44768;50.298;127.520;2022-11-21T06:29:03;6.38;;;2.70;;
55545;SDS011;44768;50.298;127.520;2022-11-21T06:34:05;3.35;;;2.22;;
55545;SDS011;44768;50.298;127.520;2022-11-21T06:39:07;2.50;;;1.80;;
55545;SDS011;44768;50.298;127.520;2022-11-21T06:44:08;3.80;;;2.75;;
55545;SDS011;44768;50.298;127.520;2022-11-21T06:49:09;4.40;;;3.22;;
55545;SDS011;44768;50.298;127.520;2022-11-21T06:54:10;14.77;;;2.95;;
55545;SDS011;44768;50.298;127.520;2022-11-21T06:59:11;9.23;;;3.10;;
55545;SDS011;44768;50.298;127.520;2022-11-21T07:04:12;7.87;;;2.77;;
55545;SDS011;44768;50.298;127.520;2022-11-21T07:09:13;5.00;;;2.80;;
55545;SDS011;44768;50.298;127.520;2022-11-21T07:14:16;4.82;;;2.83;;
55545;SDS011;44768;50.298;127.520;2022-11-21T07:24:18;7.63;;;3.78;;
55545;SDS011;44768;50.298;127.520;2022-11-21T07:29:19;7.70;;;4.43;;
55545;SDS011;44768;50.298;127.520;2022-11-21T07:34:20;4.93;;;3.50;;
55545;SDS011;44768;50.298;127.520;2022-11-21T07:44:23;2.75;;;2.30;;
55545;SDS011;44768;50.298;127.520;2022-11-21T07:49:24;4.78;;;3.22;;
55545;SDS011;44768;50.298;127.520;2022-11-21T07:54:25;4.88;;;2.90;;
55545;SDS011;44768;50.298;127.520;2022-11-21T07:59:26;8.95;;;2.53;;
55545;SDS011;44768;50.298;127.520;2022-11-21T08:04:27;4.90;;;2.97;;
55545;SDS011;44768;50.298;127.520;2022-11-21T08:09:29;4.82;;;3.60;;
55545;SDS011;44768;50.298;127.520;2022-11-21T08:14:31;5.47;;;3.90;;
55545;SDS011;44768;50.298;127.520;2022-11-21T08:19:33;7.32;;;4.10;;
55545;SDS011;44768;50.298;127.520;2022-11-21T08:24:35;12.25;;;5.10;;
55545;SDS011;44768;50.298;127.520;2022-11-21T08:29:36;11.75;;;5.88;;
55545;SDS011;44768;50.298;127.520;2022-11-21T08:34:37;8.77;;;4.53;;
55545;SDS011;44768;50.298;127.520;2022-11-21T08:44:40;5.95;;;3.47;;
55545;SDS011;44768;50.298;127.520;2022-11-21T08:49:41;5.25;;;3.42;;
55545;SDS011;44768;50.298;127.520;2022-11-21T08:54:44;6.10;;;3.30;;
55545;SDS011;44768;50.298;127.520;2022-11-21T08:59:46;3.07;;;2.27;;
55545;SDS011;44768;50.298;127.520;2022-11-21T09:04:47;4.18;;;2.45;;
55545;SDS011;44768;50.298;127.520;2022-11-21T09:09:48;3.78;;;2.58;;
55545;SDS011;44768;50.298;127.520;2022-11-21T09:20:09;6.50;;;3.07;;
55545;SDS011;44768;50.298;127.520;2022-11-21T09:25:11;6.20;;;3.35;;
55545;SDS011;44768;50.298;127.520;2022-11-21T09:35:51;8.03;;;2.90;;
55545;SDS011;44768;50.298;127.520;2022-11-21T09:45:58;4.50;;;2.17;;
55545;SDS011;44768;50.298;127.520;2022-11-21T09:51:06;5.67;;;3.27;;
55545;SDS011;44768;50.298;127.520;2022-11-21T09:56:10;5.87;;;3.70;;
55545;SDS011;44768;50.298;127.520;2022-11-21T10:01:14;9.75;;;4.10;;
55545;SDS011;44768;50.298;127.520;2022-11-21T10:11:26;4.40;;;2.47;;
55545;SDS011;44768;50.298;127.520;2022-11-21T10:31:41;4.00;;;2.57;;
55545;SDS011;44768;50.298;127.520;2022-11-21T10:36:43;8.33;;;3.07;;
55545;SDS011;44768;50.298;127.520;2022-11-21T10:52:50;13.07;;;6.00;;
55545;SDS011;44768;50.298;127.520;2022-11-21T10:57:53;7.20;;;3.80;;
55545;SDS011;44768;50.298;127.520;2022-11-21T11:13:02;8.90;;;5.00;;
55545;SDS011;44768;50.298;127.520;2022-11-21T11:18:27;11.37;;;5.67;;
55545;SDS011;44768;50.298;127.520;2022-11-21T11:23:34;11.68;;;6.18;;
55545;SDS011;44768;50.298;127.520;2022-11-21T11:28:39;11.13;;;5.13;;
55545;SDS011;44768;50.298;127.520;2022-11-21T11:33:48;7.80;;;4.60;;
55545;SDS011;44768;50.298;127.520;2022-11-21T11:38:54;7.93;;;4.03;;
55545;SDS011;44768;50.298;127.520;2022-11-21T11:49:49;16.00;;;6.40;;
55545;SDS011;44768;50.298;127.520;2022-11-21T12:00:51;9.80;;;4.40;;
55545;SDS011;44768;50.298;127.520;2022-11-21T12:05:58;4.53;;;2.60;;
55545;SDS011;44768;50.298;127.520;2022-11-21T12:11:10;4.90;;;3.00;;
55545;SDS011;44768;50.298;127.520;2022-11-21T12:16:33;6.15;;;3.33;;
55545;SDS011;44768;50.298;127.520;2022-11-21T12:21:36;8.60;;;4.40;;
55545;SDS011;44768;50.298;127.520;2022-11-21T12:26:53;11.57;;;6.18;;
55545;SDS011;44768;50.298;127.520;2022-11-21T12:37:32;33.67;;;16.43;;
55545;SDS011;44768;50.298;127.520;2022-11-21T12:42:53;37.17;;;16.63;;
55545;SDS011;44768;50.298;127.520;2022-11-21T12:48:14;41.60;;;18.13;;
55545;SDS011;44768;50.298;127.520;2022-11-21T12:54:06;66.57;;;26.30;;
55545;SDS011;44768;50.298;127.520;2022-11-21T13:04:34;54.47;;;21.47;;
55545;SDS011;44768;50.298;127.520;2022-11-21T13:09:37;65.10;;;25.37;;
55545;SDS011;44768;50.298;127.520;2022-11-21T13:20:04;60.77;;;21.73;;
55545;SDS011;44768;50.298;127.520;2022-11-21T13:25:49;53.30;;;19.53;;
55545;SDS011;44768;50.298;127.520;2022-11-21T13:30:31;56.73;;;21.83;;
55545;SDS011;44768;50.298;127.520;2022-11-21T13:40:49;33.80;;;13.23;;
55545;SDS011;44768;50.298;127.520;2022-11-21T13:46:09;19.37;;;8.27;;
55545;SDS011;44768;50.298;127.520;2022-11-21T14:01:44;15.57;;;5.00;;
55545;SDS011;44768;50.298;127.520;2022-11-21T14:06:49;14.97;;;4.43;;
55545;SDS011;44768;50.298;127.520;2022-11-21T14:11:52;13.93;;;5.97;;
55545;SDS011;44768;50.298;127.520;2022-11-21T14:22:26;35.03;;;14.03;;
55545;SDS011;44768;50.298;127.520;2022-11-21T14:27:29;31.33;;;10.50;;
55545;SDS011;44768;50.298;127.520;2022-11-21T14:32:31;31.70;;;11.07;;
55545;SDS011;44768;50.298;127.520;2022-11-21T14:37:33;22.25;;;9.95;;
55545;SDS011;44768;50.298;127.520;2022-11-21T14:42:35;25.33;;;10.57;;
55545;SDS011;44768;50.298;127.520;2022-11-21T14:47:44;26.95;;;11.32;;
55545;SDS011;44768;50.298;127.520;2022-11-21T14:52:46;20.23;;;6.60;;
55545;SDS011;44768;50.298;127.520;2022-11-21T14:57:47;11.87;;;5.83;;
55545;SDS011;44768;50.298;127.520;2022-11-21T15:02:52;14.48;;;6.32;;
55545;SDS011;44768;50.298;127.520;2022-11-21T15:07:54;19.60;;;6.37;;
55545;SDS011;44768;50.298;127.520;2022-11-21T15:13:08;15.07;;;6.87;;
55545;SDS011;44768;50.298;127.520;2022-11-21T15:18:14;14.83;;;6.20;;
55545;SDS011;44768;50.298;127.520;2022-11-21T15:28:26;12.77;;;5.80;;
55545;SDS011;44768;50.298;127.520;2022-11-21T15:33:27;11.80;;;4.90;;
55545;SDS011;44768;50.298;127.520;2022-11-21T15:38:39;9.75;;;4.20;;
55545;SDS011;44768;50.298;127.520;2022-11-21T15:43:45;6.90;;;3.30;;
55545;SDS011;44768;50.298;127.520;2022-11-21T15:48:47;6.70;;;3.17;;
55545;SDS011;44768;50.298;127.520;2022-11-21T15:53:49;6.03;;;2.80;;
55545;SDS011;44768;50.298;127.520;2022-11-21T15:58:54;5.70;;;3.00;;
55545;SDS011;44768;50.298;127.520;2022-11-21T16:03:56;7.30;;;3.15;;
55545;SDS011;44768;50.298;127.520;2022-11-21T16:08:58;3.93;;;2.30;;
55545;SDS011;44768;50.298;127.520;2022-11-21T16:19:00;4.17;;;1.93;;
55545;SDS011;44768;50.298;127.520;2022-11-21T16:24:02;5.27;;;2.63;;
55545;SDS011;44768;50.298;127.520;2022-11-21T16:29:03;5.47;;;2.17;;
55545;SDS011;44768;50.298;127.520;2022-11-21T16:34:05;2.20;;;1.60;;
55545;SDS011;44768;50.298;127.520;2022-11-21T16:39:07;5.80;;;1.55;;
55545;SDS011;44768;50.298;127.520;2022-11-21T16:44:11;4.93;;;1.90;;
55545;SDS011;44768;50.298;127.520;2022-11-21T16:49:16;3.40;;;2.00;;
55545;SDS011;44768;50.298;127.520;2022-11-21T16:54:18;2.67;;;1.70;;
55545;SDS011;44768;50.298;127.520;2022-11-21T16:59:20;2.97;;;1.90;;
55545;SDS011;44768;50.298;127.520;2022-11-21T17:04:21;2.17;;;1.63;;
55545;SDS011;44768;50.298;127.520;2022-11-21T17:09:22;2.97;;;1.58;;
55545;SDS011;44768;50.298;127.520;2022-11-21T17:14:24;1.83;;;1.55;;
55545;SDS011;44768;50.298;127.520;2022-11-21T17:19:25;2.33;;;1.63;;
55545;SDS011;44768;50.298;127.520;2022-11-21T17:24:26;3.13;;;1.53;;
55545;SDS011;44768;50.298;127.520;2022-11-21T17:29:28;2.65;;;1.60;;
55545;SDS011;44768;50.298;127.520;2022-11-21T17:34:30;3.00;;;1.90;;
55545;SDS011;44768;50.298;127.520;2022-11-21T17:39:32;2.60;;;1.53;;
55545;SDS011;44768;50.298;127.520;2022-11-21T17:44:33;7.63;;;1.80;;
55545;SDS011;44768;50.298;127.520;2022-11-21T17:49:34;2.92;;;1.70;;
55545;SDS011;44768;50.298;127.520;2022-11-21T17:54:37;4.83;;;1.50;;
55545;SDS011;44768;50.298;127.520;2022-11-21T17:59:38;4.10;;;1.40;;
55545;SDS011;44768;50.298;127.520;2022-11-21T18:04:39;2.78;;;1.90;;
55545;SDS011;44768;50.298;127.520;2022-11-21T18:09:41;3.08;;;1.80;;
55545;SDS011;44768;50.298;127.520;2022-11-21T18:14:42;3.35;;;2.10;;
55545;SDS011;44768;50.298;127.520;2022-11-21T18:19:43;4.50;;;2.10;;
55545;SDS011;44768;50.298;127.520;2022-11-21T18:24:44;4.30;;;2.00;;
55545;SDS011;44768;50.298;127.520;2022-11-21T18:29:56;6.43;;;2.58;;
55545;SDS011;44768;50.298;127.520;2022-11-21T18:34:57;6.20;;;1.80;;
55545;SDS011;44768;50.298;127.520;2022-11-21T18:39:58;5.35;;;1.95;;
55545;SDS011;44768;50.298;127.520;2022-11-21T18:44:59;3.43;;;2.03;;
55545;SDS011;44768;50.298;127.520;2022-11-21T18:50:01;5.22;;;2.60;;
55545;SDS011;44768;50.298;127.520;2022-11-21T18:55:03;2.77;;;1.70;;
55545;SDS011;44768;50.298;127.520;2022-11-21T19:00:05;3.37;;;1.60;;
55545;SDS011;44768;50.298;127.520;2022-11-21T19:05:06;2.90;;;1.90;;
55545;SDS011;44768;50.298;127.520;2022-11-21T19:10:07;4.68;;;1.92;;
55545;SDS011;44768;50.298;127.520;2022-11-21T19:15:09;2.63;;;1.50;;
55545;SDS011;44768;50.298;127.520;2022-11-21T19:20:10;2.47;;;1.63;;
55545;SDS011;44768;50.298;127.520;2022-11-21T19:25:11;2.60;;;1.58;;
55545;SDS011;44768;50.298;127.520;2022-11-21T19:30:13;1.70;;;1.47;;
55545;SDS011;44768;50.298;127.520;2022-11-21T19:35:14;3.15;;;1.55;;
55545;SDS011;44768;50.298;127.520;2022-11-21T19:40:18;2.53;;;1.67;;
55545;SDS011;44768;50.298;127.520;2022-11-21T19:45:19;2.77;;;1.67;;
55545;SDS011;44768;50.298;127.520;2022-11-21T19:50:20;4.38;;;1.77;;
55545;SDS011;44768;50.298;127.520;2022-11-21T19:55:21;3.17;;;1.60;;
55545;SDS011;44768;50.298;127.520;2022-11-21T20:00:23;6.43;;;1.73;;
55545;SDS011;44768;50.298;127.520;2022-11-21T20:05:25;3.40;;;1.90;;
55545;SDS011;44768;50.298;127.520;2022-11-21T20:10:26;2.95;;;1.65;;
55545;SDS011;44768;50.298;127.520;2022-11-21T20:15:27;4.65;;;1.92;;
55545;SDS011;44768;50.298;127.520;2022-11-21T20:20:28;2.20;;;1.60;;
55545;SDS011;44768;50.298;127.520;2022-11-21T20:25:29;3.20;;;1.83;;
55545;SDS011;44768;50.298;127.520;2022-11-21T20:30:31;2.00;;;1.70;;
55545;SDS011;44768;50.298;127.520;2022-11-21T20:35:32;3.77;;;2.20;;
55545;SDS011;44768;50.298;127.520;2022-11-21T20:40:35;4.07;;;2.40;;
55545;SDS011;44768;50.298;127.520;2022-11-21T20:45:36;6.40;;;3.30;;
55545;SDS011;44768;50.298;127.520;2022-11-21T20:50:37;11.45;;;4.80;;
55545;SDS011;44768;50.298;127.520;2022-11-21T20:55:39;11.87;;;5.17;;
55545;SDS011;44768;50.298;127.520;2022-11-21T21:00:41;22.90;;;8.87;;
55545;SDS011;44768;50.298;127.520;2022-11-21T21:05:42;18.50;;;8.40;;
55545;SDS011;44768;50.298;127.520;2022-11-21T21:10:43;23.42;;;9.40;;
55545;SDS011;44768;50.298;127.520;2022-11-21T21:15:44;24.13;;;9.13;;
55545;SDS011;44768;50.298;127.520;2022-11-21T21:20:46;29.20;;;10.68;;
55545;SDS011;44768;50.298;127.520;2022-11-21T21:25:47;40.58;;;14.63;;
55545;SDS011;44768;50.298;127.520;2022-11-21T21:30:48;41.13;;;14.13;;
55545;SDS011;44768;50.298;127.520;2022-11-21T21:35:49;49.42;;;15.45;;
55545;SDS011;44768;50.298;127.520;2022-11-21T21:40:53;23.70;;;8.63;;
55545;SDS011;44768;50.298;127.520;2022-11-21T21:45:54;16.47;;;5.77;;
55545;SDS011;44768;50.298;127.520;2022-11-21T21:51:02;10.23;;;4.80;;
55545;SDS011;44768;50.298;127.520;2022-11-21T21:56:05;4.03;;;2.70;;
55545;SDS011;44768;50.298;127.520;2022-11-21T22:01:11;6.33;;;3.50;;
55545;SDS011;44768;50.298;127.520;2022-11-21T22:06:13;8.53;;;2.53;;
55545;SDS011;44768;50.298;127.520;2022-11-21T22:11:21;7.23;;;4.20;;
55545;SDS011;44768;50.298;127.520;2022-11-21T22:16:23;14.37;;;6.40;;
55545;SDS011;44768;50.298;127.520;2022-11-21T22:21:25;14.93;;;7.40;;
55545;SDS011;44768;50.298;127.520;2022-11-21T22:26:27;24.20;;;10.30;;
55545;SDS011;44768;50.298;127.520;2022-11-21T22:31:29;26.83;;;9.53;;
55545;SDS011;44768;50.298;127.520;2022-11-21T22:36:33;21.80;;;8.03;;
55545;SDS011;44768;50.298;127.520;2022-11-21T22:41:35;28.98;;;12.15;;
55545;SDS011;44768;50.298;127.520;2022-11-21T22:46:36;33.83;;;11.70;;
55545;SDS011;44768;50.298;127.520;2022-11-21T22:51:37;27.92;;;12.07;;
55545;SDS011;44768;50.298;127.520;2022-11-21T22:56:39;18.60;;;6.03;;
55545;SDS011;44768;50.298;127.520;2022-11-21T23:01:40;17.77;;;7.37;;
55545;SDS011;44768;50.298;127.520;2022-11-21T23:06:41;20.08;;;8.43;;
55545;SDS011;44768;50.298;127.520;2022-11-21T23:11:42;12.60;;;6.32;;
55545;SDS011;44768;50.298;127.520;2022-11-21T23:16:44;20.60;;;7.40;;
55545;SDS011;44768;50.298;127.520;2022-11-21T23:21:45;9.13;;;4.78;;
55545;SDS011;44768;50.298;127.520;2022-11-21T23:26:46;8.27;;;4.07;;
55545;SDS011;44768;50.298;127.520;2022-11-21T23:31:47;24.05;;;8.25;;
55545;SDS011;44768;50.298;127.520;2022-11-21T23:36:49;29.73;;;12.50;;
55545;SDS011;44768;50.298;127.520;2022-11-21T23:41:50;22.83;;;8.45;;
55545;SDS011;44768;50.298;127.520;2022-11-21T23:46:52;16.60;;;7.80;;
55545;SDS011;44768;50.298;127.520;2022-11-21T23:51:53;13.93;;;6.05;;
55545;SDS011;44768;50.298;127.520;2022-11-21T23:56:54;13.33;;;5.33;;
